createdAt,value
2019-04-01T05:17:11.989Z,1004.85
2019-04-01T05:18:11.940Z,1004.86
2019-04-01T05:19:12.469Z,1004.93
2019-04-01T05:20:12.463Z,1004.81
2019-04-01T05:21:11.929Z,1004.87
2019-04-01T05:22:11.925Z,1004.91
2019-04-01T05:23:11.936Z,1004.97
2019-04-01T05:24:11.894Z,1005.03
2019-04-01T05:25:11.879Z,1005.05
2019-04-01T05:26:11.905Z,1004.97
2019-04-01T05:27:11.889Z,1005.06
2019-04-01T05:28:11.909Z,1005.06
2019-04-01T05:29:11.895Z,1005.06
2019-04-01T05:30:11.810Z,1005.02
2019-04-01T05:31:14.452Z,1005.15
2019-04-01T05:32:11.799Z,1005.11
2019-04-01T05:33:11.777Z,1005.12
2019-04-01T05:34:11.763Z,1005.23
2019-04-01T05:35:15.369Z,1005.22
2019-04-01T05:36:11.739Z,1005.23
2019-04-01T05:37:11.735Z,1005.27
2019-04-01T05:38:11.721Z,1005.22
2019-04-01T05:39:11.718Z,1005.23
2019-04-01T05:40:11.723Z,1005.30
2019-04-01T05:41:11.703Z,1005.33
2019-04-01T05:42:11.670Z,1005.33
2019-04-01T05:43:12.474Z,1005.35
2019-04-01T05:44:11.689Z,1005.44
2019-04-01T05:45:11.644Z,1005.47
2019-04-01T05:46:11.630Z,1005.43
2019-04-01T05:47:24.517Z,1005.49
2019-04-01T05:48:11.616Z,1005.50
2019-04-01T05:49:11.596Z,1005.52
2019-04-01T05:50:11.672Z,1005.51
2019-04-01T05:51:11.587Z,1005.53
2019-04-01T05:52:11.576Z,1005.52
2019-04-01T05:53:11.554Z,1005.55
2019-04-01T05:54:11.539Z,1005.57
2019-04-01T05:55:11.549Z,1005.58
2019-04-01T05:56:11.535Z,1005.64
2019-04-01T05:57:11.517Z,1005.62
2019-04-01T05:58:11.499Z,1005.69
2019-04-01T05:59:11.493Z,1005.64
2019-04-01T06:00:11.477Z,1005.71
2019-04-01T06:01:11.474Z,1005.69
2019-04-01T06:02:11.493Z,1005.69
2019-04-01T06:03:11.445Z,1005.75
2019-04-01T06:04:11.432Z,1005.72
2019-04-01T06:05:11.457Z,1005.74
2019-04-01T06:06:11.409Z,1005.75
2019-04-01T06:07:11.428Z,1005.78
2019-04-01T06:08:11.433Z,1005.82
2019-04-01T06:09:11.402Z,1005.87
2019-04-01T06:10:11.390Z,1005.85
2019-04-01T06:11:11.406Z,1005.90
2019-04-01T06:12:11.344Z,1006.01
2019-04-01T06:13:11.364Z,1006.00
2019-04-01T06:14:11.356Z,1005.95
2019-04-01T06:15:11.327Z,1006.03
2019-04-01T06:16:11.307Z,1005.99
2019-04-01T06:17:11.310Z,1005.98
2019-04-01T06:18:23.019Z,1006.04
2019-04-01T06:19:11.279Z,1006.08
2019-04-01T06:20:11.460Z,1006.07
2019-04-01T06:21:11.309Z,1006.06
2019-04-01T06:22:11.260Z,1006.07
2019-04-01T06:23:11.235Z,1006.09
2019-04-01T06:24:11.213Z,1006.13
2019-04-01T06:25:11.334Z,1006.16
2019-04-01T06:26:11.302Z,1006.12
2019-04-01T06:27:11.731Z,1006.18
2019-04-01T06:28:13.415Z,1006.16
2019-04-01T06:29:12.419Z,1006.13
2019-04-01T06:30:11.174Z,1006.08
2019-04-01T06:31:11.147Z,1006.13
2019-04-01T06:32:11.134Z,1006.17
2019-04-01T06:33:11.167Z,1006.14
2019-04-01T06:34:11.097Z,1006.22
2019-04-01T06:35:11.095Z,1006.11
2019-04-01T06:36:11.158Z,1006.17
2019-04-01T06:37:11.146Z,1006.19
2019-04-01T06:38:11.064Z,1006.16
2019-04-01T06:39:11.684Z,1006.25
2019-04-01T06:40:11.116Z,1006.22
2019-04-01T06:41:11.053Z,1006.19
2019-04-01T06:42:11.021Z,1006.20
2019-04-01T06:43:11.021Z,1006.29
2019-04-01T06:44:11.218Z,1006.28
2019-04-01T06:45:11.051Z,1006.28
2019-04-01T06:46:11.317Z,1006.29
2019-04-01T06:47:16.617Z,1006.32
2019-04-01T06:48:11.081Z,1006.35
2019-04-01T06:49:25.392Z,1006.38
2019-04-01T06:50:10.931Z,1006.39
2019-04-01T06:51:10.942Z,1006.33
2019-04-01T06:52:10.913Z,1006.43
2019-04-01T06:53:10.904Z,1006.50
2019-04-01T06:54:10.880Z,1006.44
2019-04-01T06:55:10.987Z,1006.40
2019-04-01T06:56:10.861Z,1006.43
2019-04-01T06:57:10.859Z,1006.45
2019-04-01T06:58:11.999Z,1006.44
2019-04-01T06:59:10.915Z,1006.49
2019-04-01T07:00:19.597Z,1006.55
2019-04-01T07:01:10.801Z,1006.57
2019-04-01T07:02:10.898Z,1006.61
2019-04-01T07:03:10.778Z,1006.57
2019-04-01T07:04:10.814Z,1006.60
2019-04-01T07:05:12.505Z,1006.57
2019-04-01T07:06:10.776Z,1006.61
2019-04-01T07:07:18.943Z,1006.68
2019-04-01T07:08:11.742Z,1006.61
2019-04-01T07:09:10.718Z,1006.61
2019-04-01T07:10:10.719Z,1006.60
2019-04-01T07:11:10.724Z,1006.64
2019-04-01T07:12:10.687Z,1006.62
2019-04-01T07:13:10.683Z,1006.58
2019-04-01T07:14:11.710Z,1006.62
2019-04-01T07:15:11.028Z,1006.64
2019-04-01T07:16:19.154Z,1006.55
2019-04-01T07:17:10.637Z,1006.58
2019-04-01T07:18:10.616Z,1006.58
2019-04-01T07:19:10.609Z,1006.57
2019-04-01T07:20:10.597Z,1006.62
2019-04-01T07:21:10.592Z,1006.57
2019-04-01T07:22:10.577Z,1006.61
2019-04-01T07:23:10.575Z,1006.65
2019-04-01T07:24:10.561Z,1006.60
2019-04-01T07:25:10.552Z,1006.71
2019-04-01T07:26:10.546Z,1006.64
2019-04-01T07:27:10.530Z,1006.68
2019-04-01T07:28:10.511Z,1006.70
2019-04-01T07:29:10.509Z,1006.72
2019-04-01T07:30:10.682Z,1006.69
2019-04-01T07:31:10.518Z,1006.69
2019-04-01T07:32:10.465Z,1006.72
2019-04-01T07:33:10.458Z,1006.68
2019-04-01T07:34:10.441Z,1006.73
2019-04-01T07:35:10.641Z,1006.74
2019-04-01T07:36:10.423Z,1006.68
2019-04-01T07:37:10.765Z,1006.77
2019-04-01T07:38:11.297Z,1006.77
2019-04-01T07:39:10.384Z,1006.77
2019-04-01T07:40:13.792Z,1006.79
2019-04-01T07:41:10.370Z,1006.78
2019-04-01T07:42:10.448Z,1006.84
2019-04-01T07:43:10.546Z,1006.79
2019-04-01T07:44:10.329Z,1006.85
2019-04-01T07:45:10.702Z,1006.88
2019-04-01T07:46:10.310Z,1006.88
2019-04-01T07:47:23.197Z,1006.90
2019-04-01T07:48:12.606Z,1006.94
2019-04-01T07:49:10.281Z,1006.91
2019-04-01T07:50:12.312Z,1006.89
2019-04-01T07:51:10.256Z,1006.89
2019-04-01T07:52:10.250Z,1006.96
2019-04-01T07:53:10.266Z,1006.93
2019-04-01T07:54:10.241Z,1006.89
2019-04-01T07:55:10.207Z,1006.95
2019-04-01T07:56:10.229Z,1006.98
2019-04-01T07:57:10.186Z,1006.99
2019-04-01T07:58:10.177Z,1006.96
2019-04-01T07:59:10.213Z,1007.03
2019-04-01T08:00:10.156Z,1007.02
2019-04-01T08:01:10.149Z,1007.03
2019-04-01T08:02:10.162Z,1007.01
2019-04-01T08:03:10.121Z,1007.07
2019-04-01T08:04:10.195Z,1007.09
2019-04-01T08:05:10.102Z,1007.06
2019-04-01T08:06:10.088Z,1007.07
2019-04-01T08:07:13.111Z,1007.17
2019-04-01T08:08:10.371Z,1007.10
2019-04-01T08:09:10.055Z,1007.16
2019-04-01T08:10:10.058Z,1007.19
2019-04-01T08:11:10.043Z,1007.23
2019-04-01T08:12:10.021Z,1007.25
2019-04-01T08:13:10.021Z,1007.18
2019-04-01T08:14:10.048Z,1007.23
2019-04-01T08:15:09.985Z,1007.30
2019-04-01T08:16:09.986Z,1007.27
2019-04-01T08:17:10.116Z,1007.25
2019-04-01T08:18:21.669Z,1007.27
2019-04-01T08:19:09.955Z,1007.33
2019-04-01T08:20:09.972Z,1007.31
2019-04-01T08:21:09.940Z,1007.34
2019-04-01T08:22:09.915Z,1007.34
2019-04-01T08:23:09.904Z,1007.37
2019-04-01T08:24:09.893Z,1007.36
2019-04-01T08:25:09.884Z,1007.34
2019-04-01T08:26:09.878Z,1007.39
2019-04-01T08:27:09.872Z,1007.43
2019-04-01T08:28:09.851Z,1007.41
2019-04-01T08:29:09.860Z,1007.47
2019-04-01T08:30:09.827Z,1007.47
2019-04-01T08:31:13.215Z,1007.49
2019-04-01T08:32:09.806Z,1007.49
2019-04-01T08:33:09.790Z,1007.49
2019-04-01T08:34:09.776Z,1007.57
2019-04-01T08:35:09.769Z,1007.55
2019-04-01T08:36:09.874Z,1007.61
2019-04-01T08:37:09.848Z,1007.58
2019-04-01T08:38:09.823Z,1007.60
2019-04-01T08:39:09.725Z,1007.60
2019-04-01T08:40:09.782Z,1007.62
2019-04-01T08:41:09.701Z,1007.55
2019-04-01T08:42:09.688Z,1007.56
2019-04-01T08:43:09.792Z,1007.61
2019-04-01T08:44:09.765Z,1007.56
2019-04-01T08:45:09.683Z,1007.61
2019-04-01T08:46:09.642Z,1007.64
2019-04-01T08:47:09.631Z,1007.61
2019-04-01T08:48:09.654Z,1007.62
2019-04-01T08:49:22.217Z,1007.65
2019-04-01T08:50:09.631Z,1007.70
2019-04-01T08:51:09.591Z,1007.71
2019-04-01T08:52:09.583Z,1007.71
2019-04-01T08:53:09.572Z,1007.77
2019-04-01T08:54:09.561Z,1007.78
2019-04-01T08:55:09.559Z,1007.80
2019-04-01T08:56:09.540Z,1007.84
2019-04-01T08:57:09.542Z,1007.86
2019-04-01T08:58:09.515Z,1007.87
2019-04-01T08:59:09.525Z,1007.90
2019-04-01T09:00:09.493Z,1007.94
2019-04-01T09:01:10.021Z,1007.86
2019-04-01T09:02:17.617Z,1007.87
2019-04-01T09:03:10.460Z,1007.91
2019-04-01T09:04:09.454Z,1007.92
2019-04-01T09:05:09.444Z,1007.91
2019-04-01T09:06:09.529Z,1007.96
2019-04-01T09:07:09.561Z,1007.96
2019-04-01T09:08:09.402Z,1007.95
2019-04-01T09:09:09.426Z,1007.98
2019-04-01T09:10:09.415Z,1007.93
2019-04-01T09:11:09.370Z,1007.96
2019-04-01T09:12:09.379Z,1007.92
2019-04-01T09:13:09.357Z,1007.94
2019-04-01T09:14:09.347Z,1008.06
2019-04-01T09:15:09.334Z,1008.03
2019-04-01T09:16:09.335Z,1008.07
2019-04-01T09:17:09.366Z,1008.05
2019-04-01T09:18:09.376Z,1008.05
2019-04-01T09:19:09.307Z,1008.12
2019-04-01T09:20:24.635Z,1008.10
2019-04-01T09:21:09.307Z,1008.09
2019-04-01T09:22:09.260Z,1008.14
2019-04-01T09:23:09.981Z,1008.12
2019-04-01T09:24:09.236Z,1008.09
2019-04-01T09:25:09.226Z,1008.15
2019-04-01T09:26:09.214Z,1008.19
2019-04-01T09:27:09.205Z,1008.18
2019-04-01T09:28:09.202Z,1008.15
2019-04-01T09:29:09.198Z,1008.18
2019-04-01T09:30:09.166Z,1008.22
2019-04-01T09:31:09.162Z,1008.21
2019-04-01T09:32:09.142Z,1008.25
2019-04-01T09:33:09.138Z,1008.27
2019-04-01T09:34:09.119Z,1008.30
2019-04-01T09:35:09.122Z,1008.23
2019-04-01T09:36:09.107Z,1008.29
2019-04-01T09:37:09.099Z,1008.30
2019-04-01T09:38:09.089Z,1008.28
2019-04-01T09:39:09.070Z,1008.23
2019-04-01T09:40:09.110Z,1008.21
2019-04-01T09:41:09.069Z,1008.30
2019-04-01T09:42:09.733Z,1008.31
2019-04-01T09:43:09.027Z,1008.33
2019-04-01T09:44:09.053Z,1008.41
2019-04-01T09:45:09.023Z,1008.30
2019-04-01T09:46:08.985Z,1008.25
2019-04-01T09:47:08.983Z,1008.31
2019-04-01T09:48:08.972Z,1008.32
2019-04-01T09:49:08.998Z,1008.46
2019-04-01T09:50:08.949Z,1008.45
2019-04-01T09:51:21.875Z,1008.39
2019-04-01T09:52:08.922Z,1008.46
2019-04-01T09:53:08.912Z,1008.51
2019-04-01T09:54:08.928Z,1008.49
2019-04-01T09:55:08.937Z,1008.48
2019-04-01T09:56:08.884Z,1008.55
2019-04-01T09:57:17.253Z,1008.52
2019-04-01T09:58:09.857Z,1008.54
2019-04-01T09:59:08.872Z,1008.53
2019-04-01T10:00:08.843Z,1008.58
2019-04-01T10:01:08.850Z,1008.55
2019-04-01T10:02:08.811Z,1008.51
2019-04-01T10:03:08.811Z,1008.49
2019-04-01T10:04:08.830Z,1008.61
2019-04-01T10:05:08.780Z,1008.60
2019-04-01T10:06:10.392Z,1008.67
2019-04-01T10:07:08.784Z,1008.59
2019-04-01T10:08:08.745Z,1008.58
2019-04-01T10:09:08.733Z,1008.65
2019-04-01T10:10:08.721Z,1008.66
2019-04-01T10:11:12.354Z,1008.71
2019-04-01T10:12:08.702Z,1008.62
2019-04-01T10:13:08.708Z,1008.75
2019-04-01T10:14:08.682Z,1008.78
2019-04-01T10:15:08.673Z,1008.70
2019-04-01T10:16:08.662Z,1008.69
2019-04-01T10:17:08.693Z,1008.64
2019-04-01T10:18:08.642Z,1008.62
2019-04-01T10:19:08.714Z,1008.65
2019-04-01T10:20:08.651Z,1008.60
2019-04-01T10:21:08.597Z,1008.70
2019-04-01T10:22:20.813Z,1008.69
2019-04-01T10:23:08.638Z,1008.66
2019-04-01T10:24:08.565Z,1008.68
2019-04-01T10:25:08.564Z,1008.67
2019-04-01T10:26:08.567Z,1008.67
2019-04-01T10:27:08.551Z,1008.69
2019-04-01T10:28:08.539Z,1008.76
2019-04-01T10:29:08.523Z,1008.80
2019-04-01T10:30:08.514Z,1008.76
2019-04-01T10:31:08.498Z,1008.83
2019-04-01T10:32:08.480Z,1008.80
2019-04-01T10:33:08.498Z,1008.77
2019-04-01T10:34:08.504Z,1008.89
2019-04-01T10:35:08.451Z,1008.82
2019-04-01T10:36:08.436Z,1008.90
2019-04-01T10:37:08.477Z,1008.90
2019-04-01T10:38:08.418Z,1008.87
2019-04-01T10:39:08.402Z,1008.81
2019-04-01T10:40:08.445Z,1008.85
2019-04-01T10:41:08.391Z,1008.76
2019-04-01T10:42:08.424Z,1008.91
2019-04-01T10:43:08.387Z,1008.85
2019-04-01T10:44:08.422Z,1008.82
2019-04-01T10:45:08.336Z,1008.84
2019-04-01T10:46:11.969Z,1008.86
2019-04-01T10:47:08.341Z,1008.90
2019-04-01T10:48:08.320Z,1008.94
2019-04-01T10:49:08.366Z,1008.83
2019-04-01T10:50:08.331Z,1008.85
2019-04-01T10:51:08.347Z,1008.87
2019-04-01T10:52:08.304Z,1008.88
2019-04-01T10:53:21.448Z,1008.88
2019-04-01T10:54:08.260Z,1008.90
2019-04-01T10:55:08.368Z,1008.85
2019-04-01T10:56:08.220Z,1008.87
2019-04-01T10:57:08.216Z,1008.96
2019-04-01T10:58:08.258Z,1008.89
2019-04-01T10:59:08.202Z,1008.97
2019-04-01T11:00:08.178Z,1008.92
2019-04-01T11:01:08.216Z,1008.94
2019-04-01T11:02:08.181Z,1008.99
2019-04-01T11:03:08.151Z,1008.93
2019-04-01T11:04:08.158Z,1008.99
2019-04-01T11:05:08.196Z,1008.99
2019-04-01T11:06:08.151Z,1008.94
2019-04-01T11:07:08.112Z,1008.93
2019-04-01T11:08:08.134Z,1009.03
2019-04-01T11:09:08.092Z,1008.98
2019-04-01T11:10:11.039Z,1009.03
2019-04-01T11:11:08.054Z,1009.02
2019-04-01T11:12:08.050Z,1009.00
2019-04-01T11:13:08.044Z,1009.04
2019-04-01T11:14:08.037Z,1009.07
2019-04-01T11:15:08.017Z,1009.10
2019-04-01T11:16:08.051Z,1009.04
2019-04-01T11:17:07.989Z,1009.08
2019-04-01T11:18:07.982Z,1009.09
2019-04-01T11:19:07.988Z,1009.12
2019-04-01T11:20:08.220Z,1009.05
2019-04-01T11:21:07.951Z,1009.13
2019-04-01T11:22:07.986Z,1009.11
2019-04-01T11:23:07.924Z,1009.12
2019-04-01T11:24:20.463Z,1009.07
2019-04-01T11:25:07.902Z,1009.14
2019-04-01T11:26:07.888Z,1009.08
2019-04-01T11:27:07.879Z,1009.15
2019-04-01T11:28:07.878Z,1009.14
2019-04-01T11:29:07.871Z,1009.10
2019-04-01T11:30:08.392Z,1009.11
2019-04-01T11:31:07.838Z,1009.14
2019-04-01T11:32:07.986Z,1009.22
2019-04-01T11:33:08.181Z,1009.22
2019-04-01T11:34:07.838Z,1009.25
2019-04-01T11:35:07.849Z,1009.13
2019-04-01T11:36:07.836Z,1009.21
2019-04-01T11:37:07.782Z,1009.18
2019-04-01T11:38:07.772Z,1009.12
2019-04-01T11:39:07.776Z,1009.16
2019-04-01T11:40:11.346Z,1009.21
2019-04-01T11:41:07.729Z,1009.24
2019-04-01T11:42:07.789Z,1009.15
2019-04-01T11:43:07.731Z,1009.20
2019-04-01T11:44:07.792Z,1009.16
2019-04-01T11:45:07.703Z,1009.16
2019-04-01T11:46:07.711Z,1009.24
2019-04-01T11:47:07.684Z,1009.16
2019-04-01T11:48:07.667Z,1009.22
2019-04-01T11:49:07.713Z,1009.12
2019-04-01T11:50:07.686Z,1009.18
2019-04-01T11:51:07.635Z,1009.16
2019-04-01T11:52:08.875Z,1009.28
2019-04-01T11:53:07.592Z,1009.22
2019-04-01T11:54:08.280Z,1009.23
2019-04-01T11:55:19.386Z,1009.27
2019-04-01T11:56:07.563Z,1009.28
2019-04-01T11:57:07.550Z,1009.38
2019-04-01T11:58:07.543Z,1009.41
2019-04-01T11:59:08.451Z,1009.47
2019-04-01T12:00:11.467Z,1009.41
2019-04-01T12:01:08.514Z,1009.36
2019-04-01T12:02:08.342Z,1009.42
2019-04-01T12:03:07.487Z,1009.35
2019-04-01T12:04:07.485Z,1009.32
2019-04-01T12:05:07.491Z,1009.36
2019-04-01T12:06:07.504Z,1009.37
2019-04-01T12:07:07.445Z,1009.44
2019-04-01T12:08:07.435Z,1009.43
2019-04-01T12:09:07.426Z,1009.46
2019-04-01T12:10:07.791Z,1009.56
2019-04-01T12:11:07.409Z,1009.45
2019-04-01T12:12:22.414Z,1009.46
2019-04-01T12:13:08.374Z,1009.50
2019-04-01T12:14:07.367Z,1009.51
2019-04-01T12:15:07.407Z,1009.49
2019-04-01T12:16:07.367Z,1009.39
2019-04-01T12:17:07.333Z,1009.50
2019-04-01T12:18:07.324Z,1009.49
2019-04-01T12:19:07.308Z,1009.42
2019-04-01T12:20:07.300Z,1009.50
2019-04-01T12:21:08.259Z,1009.52
2019-04-01T12:22:07.295Z,1009.51
2019-04-01T12:23:07.271Z,1009.47
2019-04-01T12:24:07.259Z,1009.52
2019-04-01T12:25:07.258Z,1009.48
2019-04-01T12:26:19.888Z,1009.51
2019-04-01T12:27:07.221Z,1009.51
2019-04-01T12:28:07.213Z,1009.49
2019-04-01T12:29:07.207Z,1009.48
2019-04-01T12:30:07.185Z,1009.52
2019-04-01T12:31:07.195Z,1009.55
2019-04-01T12:32:07.216Z,1009.48
2019-04-01T12:33:07.164Z,1009.62
2019-04-01T12:34:07.141Z,1009.63
2019-04-01T12:35:07.132Z,1009.65
2019-04-01T12:36:07.139Z,1009.60
2019-04-01T12:37:07.111Z,1009.69
2019-04-01T12:38:07.114Z,1009.67
2019-04-01T12:39:07.128Z,1009.62
2019-04-01T12:40:07.082Z,1009.62
2019-04-01T12:41:07.068Z,1009.64
2019-04-01T12:42:07.081Z,1009.58
2019-04-01T12:43:07.056Z,1009.66
2019-04-01T12:44:07.042Z,1009.63
2019-04-01T12:45:07.020Z,1009.68
2019-04-01T12:46:07.010Z,1009.58
2019-04-01T12:47:07.003Z,1009.53
2019-04-01T12:48:07.006Z,1009.53
2019-04-01T12:49:06.975Z,1009.65
2019-04-01T12:50:06.984Z,1009.51
2019-04-01T12:51:06.952Z,1009.63
2019-04-01T12:52:06.966Z,1009.61
2019-04-01T12:53:06.961Z,1009.61
2019-04-01T12:54:06.927Z,1009.72
2019-04-01T12:55:06.910Z,1009.66
2019-04-01T12:56:06.907Z,1009.67
2019-04-01T12:57:20.971Z,1009.56
2019-04-01T12:58:06.888Z,1009.69
2019-04-01T12:59:06.875Z,1009.66
2019-04-01T13:00:06.864Z,1009.57
2019-04-01T13:01:06.849Z,1009.51
2019-04-01T13:02:06.849Z,1009.50
2019-04-01T13:03:06.821Z,1009.52
2019-04-01T13:04:06.887Z,1009.66
2019-04-01T13:05:06.799Z,1009.68
2019-04-01T13:06:06.802Z,1009.68
2019-04-01T13:07:06.779Z,1009.76
2019-04-01T13:08:06.773Z,1009.75
2019-04-01T13:09:06.759Z,1009.74
2019-04-01T13:10:06.757Z,1009.78
2019-04-01T13:11:06.742Z,1009.73
2019-04-01T13:12:06.728Z,1009.78
2019-04-01T13:13:06.714Z,1009.73
2019-04-01T13:14:06.704Z,1009.71
2019-04-01T13:15:06.704Z,1009.74
2019-04-01T13:16:09.028Z,1009.77
2019-04-01T13:17:06.672Z,1009.75
2019-04-01T13:18:06.660Z,1009.78
2019-04-01T13:19:06.647Z,1009.71
2019-04-01T13:20:06.636Z,1009.76
2019-04-01T13:21:06.636Z,1009.71
2019-04-01T13:22:06.627Z,1009.85
2019-04-01T13:23:06.604Z,1009.79
2019-04-01T13:24:06.589Z,1009.84
2019-04-01T13:25:06.577Z,1009.75
2019-04-01T13:26:06.569Z,1009.84
2019-04-01T13:27:09.128Z,1009.83
2019-04-01T13:28:19.092Z,1009.70
2019-04-01T13:29:06.537Z,1009.75
2019-04-01T13:30:06.519Z,1009.75
2019-04-01T13:31:06.517Z,1009.70
2019-04-01T13:32:06.510Z,1009.76
2019-04-01T13:33:06.590Z,1009.82
2019-04-01T13:34:06.484Z,1009.64
2019-04-01T13:35:06.471Z,1009.65
2019-04-01T13:36:07.946Z,1009.76
2019-04-01T13:37:06.455Z,1009.65
2019-04-01T13:38:06.433Z,1009.69
2019-04-01T13:39:06.432Z,1009.69
2019-04-01T13:40:06.411Z,1009.67
2019-04-01T13:41:06.402Z,1009.77
2019-04-01T13:42:06.391Z,1009.64
2019-04-01T13:43:06.384Z,1009.78
2019-04-01T13:44:08.771Z,1009.67
2019-04-01T13:45:06.360Z,1009.78
2019-04-01T13:46:06.351Z,1009.69
2019-04-01T13:47:06.337Z,1009.69
2019-04-01T13:48:06.334Z,1009.76
2019-04-01T13:49:06.334Z,1009.77
2019-04-01T13:50:06.312Z,1009.77
2019-04-01T13:51:06.305Z,1009.66
2019-04-01T13:52:06.278Z,1009.72
2019-04-01T13:53:06.272Z,1009.80
2019-04-01T13:54:08.896Z,1009.79
2019-04-01T13:55:06.293Z,1009.76
2019-04-01T13:56:09.907Z,1009.80
2019-04-01T13:57:06.234Z,1009.75
2019-04-01T13:58:06.235Z,1009.69
2019-04-01T13:59:19.313Z,1009.72
2019-04-01T14:00:06.186Z,1009.67
2019-04-01T14:01:06.195Z,1009.60
2019-04-01T14:02:06.173Z,1009.67
2019-04-01T14:03:06.161Z,1009.71
2019-04-01T14:04:06.153Z,1009.65
2019-04-01T14:05:06.436Z,1009.78
2019-04-01T14:06:06.165Z,1009.69
2019-04-01T14:07:06.115Z,1009.72
2019-04-01T14:08:06.208Z,1009.70
2019-04-01T14:09:06.088Z,1009.68
2019-04-01T14:10:06.088Z,1009.66
2019-04-01T14:11:06.300Z,1009.70
2019-04-01T14:12:06.068Z,1009.64
2019-04-01T14:13:06.051Z,1009.61
2019-04-01T14:14:06.038Z,1009.62
2019-04-01T14:15:06.033Z,1009.70
2019-04-01T14:16:06.013Z,1009.72
2019-04-01T14:17:06.470Z,1009.63
2019-04-01T14:18:05.992Z,1009.63
2019-04-01T14:19:06.022Z,1009.57
2019-04-01T14:20:05.968Z,1009.59
2019-04-01T14:21:16.274Z,1009.54
2019-04-01T14:22:06.964Z,1009.53
2019-04-01T14:23:05.942Z,1009.56
2019-04-01T14:24:05.926Z,1009.60
2019-04-01T14:25:07.485Z,1009.56
2019-04-01T14:26:05.900Z,1009.51
2019-04-01T14:27:05.897Z,1009.54
2019-04-01T14:28:05.895Z,1009.54
2019-04-01T14:29:06.144Z,1009.64
2019-04-01T14:30:18.004Z,1009.50
2019-04-01T14:31:06.077Z,1009.52
2019-04-01T14:32:05.839Z,1009.53
2019-04-01T14:33:05.831Z,1009.56
2019-04-01T14:34:06.367Z,1009.57
2019-04-01T14:35:05.803Z,1009.52
2019-04-01T14:36:05.795Z,1009.58
2019-04-01T14:37:05.837Z,1009.55
2019-04-01T14:38:05.782Z,1009.56
2019-04-01T14:39:05.763Z,1009.55
2019-04-01T14:40:05.762Z,1009.57
2019-04-01T14:41:05.742Z,1009.59
2019-04-01T14:42:05.737Z,1009.56
2019-04-01T14:43:05.725Z,1009.58
2019-04-01T14:44:05.707Z,1009.57
2019-04-01T14:45:06.050Z,1009.54
2019-04-01T14:46:05.970Z,1009.60
2019-04-01T14:47:08.950Z,1009.59
2019-04-01T14:48:08.459Z,1009.63
2019-04-01T14:49:05.655Z,1009.57
2019-04-01T14:50:07.646Z,1009.66
2019-04-01T14:51:05.628Z,1009.63
2019-04-01T14:52:05.625Z,1009.55
2019-04-01T14:53:05.620Z,1009.61
2019-04-01T14:54:06.093Z,1009.58
2019-04-01T14:55:05.581Z,1009.57
2019-04-01T14:56:05.578Z,1009.69
2019-04-01T14:57:05.565Z,1009.68
2019-04-01T14:58:05.557Z,1009.68
2019-04-01T14:59:05.551Z,1009.73
2019-04-01T15:00:05.585Z,1009.75
2019-04-01T15:01:16.845Z,1009.64
2019-04-01T15:02:05.509Z,1009.73
2019-04-01T15:03:05.503Z,1009.69
2019-04-01T15:04:05.490Z,1009.70
2019-04-01T15:05:05.479Z,1009.59
2019-04-01T15:06:05.509Z,1009.64
2019-04-01T15:07:05.462Z,1009.62
2019-04-01T15:08:05.448Z,1009.61
2019-04-01T15:09:05.442Z,1009.61
2019-04-01T15:10:05.432Z,1009.57
2019-04-01T15:11:05.423Z,1009.54
2019-04-01T15:12:05.449Z,1009.56
2019-04-01T15:13:06.158Z,1009.58
2019-04-01T15:14:05.388Z,1009.59
2019-04-01T15:15:05.367Z,1009.52
2019-04-01T15:16:05.358Z,1009.53
2019-04-01T15:17:05.348Z,1009.49
2019-04-01T15:18:05.359Z,1009.54
2019-04-01T15:19:05.327Z,1009.51
2019-04-01T15:20:05.312Z,1009.45
2019-04-01T15:21:05.308Z,1009.49
2019-04-01T15:22:05.292Z,1009.55
2019-04-01T15:23:05.300Z,1009.44
2019-04-01T15:24:05.295Z,1009.50
2019-04-01T15:25:05.259Z,1009.42
2019-04-01T15:26:05.258Z,1009.48
2019-04-01T15:27:05.241Z,1009.47
2019-04-01T15:28:05.233Z,1009.45
2019-04-01T15:29:05.225Z,1009.50
2019-04-01T15:30:05.208Z,1009.53
2019-04-01T15:31:05.199Z,1009.52
2019-04-01T15:32:18.453Z,1009.51
2019-04-01T15:33:05.175Z,1009.46
2019-04-01T15:34:08.867Z,1009.46
2019-04-01T15:35:05.157Z,1009.39
2019-04-01T15:36:05.206Z,1009.39
2019-04-01T15:37:05.214Z,1009.41
2019-04-01T15:38:05.117Z,1009.33
2019-04-01T15:39:05.113Z,1009.33
2019-04-01T15:40:05.117Z,1009.32
2019-04-01T15:41:05.087Z,1009.35
2019-04-01T15:42:05.072Z,1009.27
2019-04-01T15:43:05.065Z,1009.28
2019-04-01T15:44:05.054Z,1009.37
2019-04-01T15:45:06.159Z,1009.28
2019-04-01T15:46:06.385Z,1009.30
2019-04-01T15:47:05.064Z,1009.38
2019-04-01T15:48:05.010Z,1009.34
2019-04-01T15:49:05.052Z,1009.28
2019-04-01T15:50:05.000Z,1009.31
2019-04-01T15:51:05.019Z,1009.39
2019-04-01T15:52:05.728Z,1009.35
2019-04-01T15:53:04.959Z,1009.31
2019-04-01T15:54:04.955Z,1009.34
2019-04-01T15:55:04.937Z,1009.30
2019-04-01T15:56:04.924Z,1009.32
2019-04-01T15:57:04.920Z,1009.31
2019-04-01T15:58:04.897Z,1009.34
2019-04-01T15:59:04.890Z,1009.31
2019-04-01T16:00:04.875Z,1009.28
2019-04-01T16:01:04.873Z,1009.33
2019-04-01T16:02:04.873Z,1009.29
2019-04-01T16:03:17.685Z,1009.31
2019-04-01T16:04:04.865Z,1009.27
2019-04-01T16:05:05.220Z,1009.29
2019-04-01T16:06:07.619Z,1009.36
2019-04-01T16:07:04.805Z,1009.32
2019-04-01T16:08:04.789Z,1009.35
2019-04-01T16:09:05.531Z,1009.32
2019-04-01T16:10:04.765Z,1009.33
2019-04-01T16:11:04.756Z,1009.36
2019-04-01T16:12:04.793Z,1009.35
2019-04-01T16:13:04.747Z,1009.38
2019-04-01T16:14:04.720Z,1009.34
2019-04-01T16:15:04.710Z,1009.40
2019-04-01T16:16:04.706Z,1009.42
2019-04-01T16:17:05.425Z,1009.42
2019-04-01T16:18:04.690Z,1009.46
2019-04-01T16:19:04.667Z,1009.44
2019-04-01T16:20:04.659Z,1009.39
2019-04-01T16:21:04.647Z,1009.43
2019-04-01T16:22:04.633Z,1009.46
2019-04-01T16:23:04.636Z,1009.47
2019-04-01T16:24:04.625Z,1009.41
2019-04-01T16:25:04.602Z,1009.42
2019-04-01T16:26:04.592Z,1009.48
2019-04-01T16:27:04.578Z,1009.38
2019-04-01T16:28:04.582Z,1009.37
2019-04-01T16:29:04.568Z,1009.41
2019-04-01T16:30:04.544Z,1009.42
2019-04-01T16:31:04.536Z,1009.40
2019-04-01T16:32:04.526Z,1009.46
2019-04-01T16:33:04.515Z,1009.43
2019-04-01T16:34:17.597Z,1009.46
2019-04-01T16:35:04.495Z,1009.45
2019-04-01T16:36:04.480Z,1009.44
2019-04-01T16:37:04.469Z,1009.56
2019-04-01T16:38:04.461Z,1009.54
2019-04-01T16:39:04.454Z,1009.46
2019-04-01T16:40:05.951Z,1009.52
2019-04-01T16:41:04.425Z,1009.56
2019-04-01T16:42:04.416Z,1009.56
2019-04-01T16:43:04.410Z,1009.52
2019-04-01T16:44:04.406Z,1009.56
2019-04-01T16:45:04.420Z,1009.53
2019-04-01T16:46:04.393Z,1009.53
2019-04-01T16:47:04.362Z,1009.48
2019-04-01T16:48:04.353Z,1009.49
2019-04-01T16:49:04.333Z,1009.49
2019-04-01T16:50:04.518Z,1009.46
2019-04-01T16:51:04.320Z,1009.44
2019-04-01T16:52:04.303Z,1009.46
2019-04-01T16:53:04.299Z,1009.49
2019-04-01T16:54:04.293Z,1009.39
2019-04-01T16:55:04.270Z,1009.45
2019-04-01T16:56:04.372Z,1009.44
2019-04-01T16:57:04.263Z,1009.47
2019-04-01T16:58:04.238Z,1009.42
2019-04-01T16:59:04.226Z,1009.42
2019-04-01T17:00:04.231Z,1009.43
2019-04-01T17:01:04.305Z,1009.41
2019-04-01T17:02:17.399Z,1009.45
2019-04-01T17:03:05.186Z,1009.39
2019-04-01T17:04:04.180Z,1009.42
2019-04-01T17:05:15.264Z,1009.48
2019-04-01T17:06:04.147Z,1009.48
2019-04-01T17:07:04.141Z,1009.42
2019-04-01T17:08:04.129Z,1009.40
2019-04-01T17:09:04.117Z,1009.41
2019-04-01T17:10:04.273Z,1009.40
2019-04-01T17:11:04.113Z,1009.51
2019-04-01T17:12:04.115Z,1009.42
2019-04-01T17:13:04.064Z,1009.42
2019-04-01T17:14:04.058Z,1009.48
2019-04-01T17:15:04.104Z,1009.38
2019-04-01T17:16:04.042Z,1009.45
2019-04-01T17:17:04.028Z,1009.47
2019-04-01T17:18:04.025Z,1009.50
2019-04-01T17:19:04.000Z,1009.51
2019-04-01T17:20:03.992Z,1009.62
2019-04-01T17:21:04.869Z,1009.57
2019-04-01T17:22:03.971Z,1009.55